Rp Zug — HE7351 — position and weather

sailwx.info

Track history (hours):
 
Tides and Currents Weather Stations Pressure Air Temp Water Temp Dewpoint Dewpoint Depression Visibility Wind Speed Wind Dir Waves Ship Positions

Rp Zug

Last reported at 2015-Jul-30 23:12 UTC. Time now 2015-Jul-31 01:03 UTC.
Position N 49°25' E 008°30'.

Length 110 m; draft 2.6 m.

Type: Tanker. MMSI: 269057351.

Date/timePositionNaut miles runAvg speedWind from/ knotsBaromVisibWave heightAir tempDewpointWater temp
2015-Jul-30 23:12N 49°25' E 008°30'6 9.9
2015-Jul-30 22:33N 49°19' E 008°27'8 8.4
2015-Jul-30 21:33N 49°11' E 008°23'1110.7
2015-Jul-30 20:31N 49°01' E 008°18'15 7.5
2015-Jul-30 18:33N 48°48' E 008°05'8 7.9
2015-Jul-30 17:33N 48°43' E 007°57'67 5.1
2015-Jul-30 04:33N 47°38' E 007°33'5 5.4
2015-Jul-30 03:33N 47°34' E 007°38'0 0.5
2015-Jul-30 02:33N 47°33' E 007°38'0 0.0
2015-Jul-30 01:33N 47°33' E 007°38'0 0.0
2015-Jul-30 00:33N 47°33' E 007°38'0 0.0
2015-Jul-29 23:33N 47°33' E 007°38'0 0.0
2015-Jul-29 22:33N 47°33' E 007°38'0 0.0
2015-Jul-29 21:34N 47°33' E 007°38'0 0.0
2015-Jul-29 20:33N 47°33' E 007°38'0 0.0
2015-Jul-29 19:33N 47°33' E 007°38'0 0.0
2015-Jul-29 18:33N 47°33' E 007°38'0 0.2
2015-Jul-29 17:33N 47°33' E 007°38'0 0.0
2015-Jul-29 16:33N 47°33' E 007°38'0 0.0
2015-Jul-29 15:34N 47°33' E 007°38'0 0.0
2015-Jul-29 14:33N 47°33' E 007°38'0 0.0
2015-Jul-29 13:33N 47°33' E 007°38'1 1.3
2015-Jul-29 12:33N 47°33' E 007°36'7 5.4
2015-Jul-29 11:19N 47°39' E 007°32'64 4.2
2015-Jul-28 20:12N 48°41' E 007°55'0 0.6
2015-Jul-28 19:22N 48°41' E 007°55'20 3.5
2015-Jul-28 13:32N 48°58' E 008°14'4 4.4
2015-Jul-28 12:34N 49°01' E 008°18'5 4.8
2015-Jul-28 11:33N 49°05' E 008°21'5 4.7
2015-Jul-28 10:34N 49°10' E 008°22'5 4.8
2015-Jul-28 09:32N 49°15' E 008°24'5 4.3
2015-Jul-28 08:26N 49°19' E 008°29'4 4.3
2015-Jul-28 07:31N 49°22' E 008°30'  
2015-Jul-24 22:28N 50°50' E 006°59'4 4.2
2015-Jul-24 21:33N 50°54' E 007°02'14 4.2
2015-Jul-24 18:16N 51°06' E 006°53'4 5.0
2015-Jul-24 17:33N 51°09' E 006°51'4 3.5
2015-Jul-24 16:33N 51°11' E 006°47'2 2.1
2015-Jul-24 15:33N 51°13' E 006°46'20 4.0
2015-Jul-24 10:27N 51°33' E 006°41'18 4.7
2015-Jul-24 06:32N 51°46' E 006°20'14 4.0
2015-Jul-24 03:11N 51°53' E 006°01'3 5.0
2015-Jul-24 02:30N 51°52' E 005°55'5 5.5
2015-Jul-24 01:33N 51°53' E 005°47'7 6.7
2015-Jul-24 00:33N 51°54' E 005°36'7 6.4
2015-Jul-23 23:28N 51°52' E 005°25'5 5.1
2015-Jul-23 22:33N 51°49' E 005°19'8 7.5
2015-Jul-23 21:26N 51°50' E 005°05'8 8.8
2015-Jul-23 20:33N 51°49' E 004°53'9 8.8
2015-Jul-23 19:33N 51°48' E 004°39'0 0.0
2015-Jul-23 18:33N 51°48' E 004°39'6 6.5
2015-Jul-23 17:33N 51°50' E 004°29'6 6.2
2015-Jul-23 16:33N 51°54' E 004°20'1 0.8
2015-Jul-23 15:33N 51°53' E 004°21'0 0.0
2015-Jul-23 14:33N 51°53' E 004°21'0 0.0
2015-Jul-23 13:33N 51°53' E 004°21'0 0.0
2015-Jul-23 12:33N 51°53' E 004°21'0 0.0
2015-Jul-23 11:33N 51°53' E 004°21'0 0.0
2015-Jul-23 10:33N 51°53' E 004°21'0 0.0
2015-Jul-23 09:34N 51°53' E 004°21'0 0.1
2015-Jul-23 08:30N 51°53' E 004°22'0 0.0
2015-Jul-23 07:27N 51°53' E 004°22'0 0.0
2015-Jul-23 06:33N 51°53' E 004°22'0 0.0
2015-Jul-23 05:33N 51°53' E 004°22'0 0.0
2015-Jul-23 04:24N 51°53' E 004°22'0 0.0
2015-Jul-23 03:33N 51°53' E 004°22'0 0.0
2015-Jul-23 02:27N 51°53' E 004°22'0 0.0
2015-Jul-23 01:18N 51°53' E 004°22'0 0.0
2015-Jul-23 00:33N 51°53' E 004°22'0 0.0
2015-Jul-22 23:27N 51°53' E 004°22'0 0.0
2015-Jul-22 22:33N 51°53' E 004°22'0 0.0
2015-Jul-22 21:33N 51°53' E 004°22'0 0.0
2015-Jul-22 20:30N 51°53' E 004°22'0 0.0
2015-Jul-22 19:33N 51°53' E 004°22'0 0.0
2015-Jul-22 18:33N 51°53' E 004°22'0 0.0
2015-Jul-22 17:33N 51°53' E 004°22'0 0.0
2015-Jul-22 16:33N 51°53' E 004°22'0 0.0
2015-Jul-22 15:33N 51°53' E 004°22'0 0.0
2015-Jul-22 14:33N 51°53' E 004°22'0 0.0
2015-Jul-22 13:30N 51°53' E 004°22'0 0.0
2015-Jul-22 12:33N 51°53' E 004°22'0 0.2
2015-Jul-22 11:33N 51°53' E 004°22'0 0.1
2015-Jul-22 10:33N 51°54' E 004°22'0 0.0
2015-Jul-22 09:33N 51°54' E 004°22'0 0.0
2015-Jul-22 08:33N 51°54' E 004°22'0 0.0
2015-Jul-22 07:34N 51°54' E 004°22'0 0.0
2015-Jul-22 06:33N 51°54' E 004°22'0 0.0
2015-Jul-22 05:33N 51°54' E 004°22'0 0.0
2015-Jul-22 04:33N 51°54' E 004°22'0 0.0
2015-Jul-22 03:33N 51°54' E 004°22'0 0.0
2015-Jul-22 02:33N 51°54' E 004°22'0 0.0
2015-Jul-22 01:33N 51°54' E 004°22'0 0.0
2015-Jul-22 00:33N 51°54' E 004°22'0 0.0
2015-Jul-21 23:33N 51°54' E 004°22'0 0.0
2015-Jul-21 22:34N 51°54' E 004°22'0 0.0
2015-Jul-21 21:33N 51°54' E 004°22'0 0.0
2015-Jul-21 20:34N 51°54' E 004°22'0 0.0
2015-Jul-21 19:33N 51°54' E 004°22'0 0.0
2015-Jul-21 18:33N 51°54' E 004°22'0 0.0
2015-Jul-21 17:33N 51°54' E 004°22'0 0.0
2015-Jul-21 16:33N 51°54' E 004°22'0 0.0
2015-Jul-21 15:34N 51°54' E 004°22'0 0.0
2015-Jul-21 14:33N 51°54' E 004°22'0 0.0
2015-Jul-21 13:33N 51°54' E 004°22'0 0.0
2015-Jul-21 12:33N 51°54' E 004°22'0 0.0
2015-Jul-21 11:34N 51°54' E 004°22'0 0.0
2015-Jul-21 10:34N 51°54' E 004°22'0 0.0
2015-Jul-21 09:33N 51°54' E 004°22'0 0.0
2015-Jul-21 08:34N 51°54' E 004°22'3 3.3
2015-Jul-21 07:34N 51°51' E 004°25'8 8.4
2015-Jul-21 06:33N 51°48' E 004°37'6 5.5
2015-Jul-21 05:28N 51°42' E 004°36'0 0.0
2015-Jul-21 04:16N 51°42' E 004°36'0 0.0
2015-Jul-21 03:27N 51°42' E 004°36'0 0.0
2015-Jul-21 02:33N 51°42' E 004°36'0 0.0
2015-Jul-21 01:23N 51°42' E 004°36'0 0.0
2015-Jul-21 00:13N 51°42' E 004°36'0 0.0
2015-Jul-20 23:31N 51°42' E 004°36'  
Track history (hours):
 
Tides and Currents Weather Stations Pressure Air Temp Water Temp Dewpoint Dewpoint Depression Visibility Wind Speed Wind Dir Waves Ship Positions

Rp Zug

Last reported at 2015-Jul-30 23:12 UTC. Time now 2015-Jul-31 01:03 UTC.
Position N 49°25' E 008°30'.

Length 110 m; draft 2.6 m.

Type: Tanker. MMSI: 269057351.

Date/timePositionNaut miles runAvg speedWind from/ knotsBaromVisibWave heightAir tempDewpointWater temp
2015-Jul-30 23:12N 49°25' E 008°30'6 9.9
2015-Jul-30 22:33N 49°19' E 008°27'8 8.4
2015-Jul-30 21:33N 49°11' E 008°23'1110.7
2015-Jul-30 20:31N 49°01' E 008°18'15 7.5
2015-Jul-30 18:33N 48°48' E 008°05'8 7.9
2015-Jul-30 17:33N 48°43' E 007°57'67 5.1
2015-Jul-30 04:33N 47°38' E 007°33'5 5.4
2015-Jul-30 03:33N 47°34' E 007°38'0 0.5
2015-Jul-30 02:33N 47°33' E 007°38'0 0.0
2015-Jul-30 01:33N 47°33' E 007°38'0 0.0
2015-Jul-30 00:33N 47°33' E 007°38'0 0.0
2015-Jul-29 23:33N 47°33' E 007°38'0 0.0
2015-Jul-29 22:33N 47°33' E 007°38'0 0.0
2015-Jul-29 21:34N 47°33' E 007°38'0 0.0
2015-Jul-29 20:33N 47°33' E 007°38'0 0.0
2015-Jul-29 19:33N 47°33' E 007°38'0 0.0
2015-Jul-29 18:33N 47°33' E 007°38'0 0.2
2015-Jul-29 17:33N 47°33' E 007°38'0 0.0
2015-Jul-29 16:33N 47°33' E 007°38'0 0.0
2015-Jul-29 15:34N 47°33' E 007°38'0 0.0
2015-Jul-29 14:33N 47°33' E 007°38'0 0.0
2015-Jul-29 13:33N 47°33' E 007°38'1 1.3
2015-Jul-29 12:33N 47°33' E 007°36'7 5.4
2015-Jul-29 11:19N 47°39' E 007°32'64 4.2
2015-Jul-28 20:12N 48°41' E 007°55'0 0.6
2015-Jul-28 19:22N 48°41' E 007°55'20 3.5
2015-Jul-28 13:32N 48°58' E 008°14'4 4.4
2015-Jul-28 12:34N 49°01' E 008°18'5 4.8
2015-Jul-28 11:33N 49°05' E 008°21'5 4.7
2015-Jul-28 10:34N 49°10' E 008°22'5 4.8
2015-Jul-28 09:32N 49°15' E 008°24'5 4.3
2015-Jul-28 08:26N 49°19' E 008°29'4 4.3
2015-Jul-28 07:31N 49°22' E 008°30'  
2015-Jul-24 22:28N 50°50' E 006°59'4 4.2
2015-Jul-24 21:33N 50°54' E 007°02'14 4.2
2015-Jul-24 18:16N 51°06' E 006°53'4 5.0
2015-Jul-24 17:33N 51°09' E 006°51'4 3.5
2015-Jul-24 16:33N 51°11' E 006°47'2 2.1
2015-Jul-24 15:33N 51°13' E 006°46'20 4.0
2015-Jul-24 10:27N 51°33' E 006°41'18 4.7
2015-Jul-24 06:32N 51°46' E 006°20'14 4.0
2015-Jul-24 03:11N 51°53' E 006°01'3 5.0
2015-Jul-24 02:30N 51°52' E 005°55'5 5.5
2015-Jul-24 01:33N 51°53' E 005°47'7 6.7
2015-Jul-24 00:33N 51°54' E 005°36'7 6.4
2015-Jul-23 23:28N 51°52' E 005°25'5 5.1
2015-Jul-23 22:33N 51°49' E 005°19'8 7.5
2015-Jul-23 21:26N 51°50' E 005°05'8 8.8
2015-Jul-23 20:33N 51°49' E 004°53'9 8.8
2015-Jul-23 19:33N 51°48' E 004°39'0 0.0
2015-Jul-23 18:33N 51°48' E 004°39'6 6.5
2015-Jul-23 17:33N 51°50' E 004°29'6 6.2
2015-Jul-23 16:33N 51°54' E 004°20'1 0.8
2015-Jul-23 15:33N 51°53' E 004°21'0 0.0
2015-Jul-23 14:33N 51°53' E 004°21'0 0.0
2015-Jul-23 13:33N 51°53' E 004°21'0 0.0
2015-Jul-23 12:33N 51°53' E 004°21'0 0.0
2015-Jul-23 11:33N 51°53' E 004°21'0 0.0
2015-Jul-23 10:33N 51°53' E 004°21'0 0.0
2015-Jul-23 09:34N 51°53' E 004°21'0 0.1
2015-Jul-23 08:30N 51°53' E 004°22'0 0.0
2015-Jul-23 07:27N 51°53' E 004°22'0 0.0
2015-Jul-23 06:33N 51°53' E 004°22'0 0.0
2015-Jul-23 05:33N 51°53' E 004°22'0 0.0
2015-Jul-23 04:24N 51°53' E 004°22'0 0.0
2015-Jul-23 03:33N 51°53' E 004°22'0 0.0
2015-Jul-23 02:27N 51°53' E 004°22'0 0.0
2015-Jul-23 01:18N 51°53' E 004°22'0 0.0
2015-Jul-23 00:33N 51°53' E 004°22'0 0.0
2015-Jul-22 23:27N 51°53' E 004°22'0 0.0
2015-Jul-22 22:33N 51°53' E 004°22'0 0.0
2015-Jul-22 21:33N 51°53' E 004°22'0 0.0
2015-Jul-22 20:30N 51°53' E 004°22'0 0.0
2015-Jul-22 19:33N 51°53' E 004°22'0 0.0
2015-Jul-22 18:33N 51°53' E 004°22'0 0.0
2015-Jul-22 17:33N 51°53' E 004°22'0 0.0
2015-Jul-22 16:33N 51°53' E 004°22'0 0.0
2015-Jul-22 15:33N 51°53' E 004°22'0 0.0
2015-Jul-22 14:33N 51°53' E 004°22'0 0.0
2015-Jul-22 13:30N 51°53' E 004°22'0 0.0
2015-Jul-22 12:33N 51°53' E 004°22'0 0.2
2015-Jul-22 11:33N 51°53' E 004°22'0 0.1
2015-Jul-22 10:33N 51°54' E 004°22'0 0.0
2015-Jul-22 09:33N 51°54' E 004°22'0 0.0
2015-Jul-22 08:33N 51°54' E 004°22'0 0.0
2015-Jul-22 07:34N 51°54' E 004°22'0 0.0
2015-Jul-22 06:33N 51°54' E 004°22'0 0.0
2015-Jul-22 05:33N 51°54' E 004°22'0 0.0
2015-Jul-22 04:33N 51°54' E 004°22'0 0.0
2015-Jul-22 03:33N 51°54' E 004°22'0 0.0
2015-Jul-22 02:33N 51°54' E 004°22'0 0.0
2015-Jul-22 01:33N 51°54' E 004°22'0 0.0
2015-Jul-22 00:33N 51°54' E 004°22'0 0.0
2015-Jul-21 23:33N 51°54' E 004°22'0 0.0
2015-Jul-21 22:34N 51°54' E 004°22'0 0.0
2015-Jul-21 21:33N 51°54' E 004°22'0 0.0
2015-Jul-21 20:34N 51°54' E 004°22'0 0.0
2015-Jul-21 19:33N 51°54' E 004°22'0 0.0
2015-Jul-21 18:33N 51°54' E 004°22'0 0.0
2015-Jul-21 17:33N 51°54' E 004°22'0 0.0
2015-Jul-21 16:33N 51°54' E 004°22'0 0.0
2015-Jul-21 15:34N 51°54' E 004°22'0 0.0
2015-Jul-21 14:33N 51°54' E 004°22'0 0.0
2015-Jul-21 13:33N 51°54' E 004°22'0 0.0
2015-Jul-21 12:33N 51°54' E 004°22'0 0.0
2015-Jul-21 11:34N 51°54' E 004°22'0 0.0
2015-Jul-21 10:34N 51°54' E 004°22'0 0.0
2015-Jul-21 09:33N 51°54' E 004°22'0 0.0
2015-Jul-21 08:34N 51°54' E 004°22'3 3.3
2015-Jul-21 07:34N 51°51' E 004°25'8 8.4
2015-Jul-21 06:33N 51°48' E 004°37'6 5.5
2015-Jul-21 05:28N 51°42' E 004°36'0 0.0
2015-Jul-21 04:16N 51°42' E 004°36'0 0.0
2015-Jul-21 03:27N 51°42' E 004°36'0 0.0
2015-Jul-21 02:33N 51°42' E 004°36'0 0.0
2015-Jul-21 01:23N 51°42' E 004°36'0 0.0
2015-Jul-21 00:13N 51°42' E 004°36'0 0.0
2015-Jul-20 23:31N 51°42' E 004°36'  

Dump ship's entire track history